Time;durP1;ratioP1;P1;durP2;ratioP2;P2;SDS_P1;SDS_P2;PMS_P1;PMS_P2;Temp;Humidity;BMP_temperature;BMP_pressure;BME280_temperature;BME280_humidity;BME280_pressure;Samples;Min_cycle;Max_cycle;Signal;HPM_P1;HPM_P2
2022/04/22 00:00:10;;;;;;;;;;;;;;;10.91;100.00;96803.59;5057400;28;19924;-61
2022/04/22 00:02:37;;;;;;;;;;;;;;;10.79;100.00;96794.16;5057444;28;19924;-62
2022/04/22 00:05:04;;;;;;;;;;;;;;;10.74;100.00;96796.09;5055337;28;19992;-62
2022/04/22 00:07:30;;;;;;;;;;;;;;;10.96;100.00;96790.16;5053887;28;19925;-62
2022/04/22 00:09:57;;;;;;;;;;;;;;;10.98;100.00;96785.31;5056492;28;19944;-62
2022/04/22 00:12:23;;;;;;;;;;;;;;;11.20;100.00;96778.25;5060817;28;19925;-62
2022/04/22 00:14:51;;;;;;;;;;;;;;;11.16;100.00;96779.13;5060426;28;20514;-62
2022/04/22 00:17:17;;;;;;;;;;;;;;;11.19;100.00;96775.88;5057426;28;19993;-62
2022/04/22 00:19:43;;;;;;;;;;;;;;;11.66;100.00;96767.53;5057443;28;19929;-62
2022/04/22 00:22:10;;;;;;;;;;;;;;;11.07;100.00;96768.34;5060581;28;19925;-62
2022/04/22 00:24:36;;;;;;;;;;;;;;;11.34;100.00;96764.91;5060854;28;19924;-62
2022/04/22 00:27:02;;;;;;;;;;;;;;;11.50;100.00;96758.19;5058487;28;19925;-62
2022/04/22 00:29:29;;;;;;;;;;;;;;;11.15;100.00;96756.16;5057335;28;20001;-63
2022/04/22 00:31:56;;;;;;;;;;;;;;;10.81;100.00;96751.94;5058505;28;20006;-63
2022/04/22 00:34:23;;;;;;;;;;;;;;;11.21;100.00;96746.97;5060921;28;19925;-63
2022/04/22 00:36:49;;;;;;;;;;;;;;;10.91;100.00;96747.50;5060143;28;20058;-62
2022/04/22 00:39:16;;;;;;;;;;;;;;;10.86;100.00;96748.41;5057092;28;19925;-62
2022/04/22 00:41:42;;;;;;;;;;;;;;;10.91;100.00;96750.97;5057086;28;19953;-62
2022/04/22 00:44:09;;;;;;;;;;;;;;;10.55;100.00;96755.31;5056866;28;19957;-62
2022/04/22 00:46:35;;;;;;;;;;;;;;;10.66;100.00;96746.03;5057084;28;20029;-62
2022/04/22 00:49:03;;;;;;;;;;;;;;;10.83;100.00;96741.75;5059095;28;19925;-61
2022/04/22 00:51:30;;;;;;;;;;;;;;;10.74;100.00;96729.34;5060517;28;19925;-62
2022/04/22 00:53:56;;;;;;;;;;;;;;;10.94;100.00;96737.03;5058836;28;19984;-62
2022/04/22 00:56:23;;;;;;;;;;;;;;;11.24;100.00;96723.13;5056828;28;19925;-62
2022/04/22 00:58:51;;;;;;;;;;;;;;;11.45;100.00;96720.84;5057129;28;20390;-61
2022/04/22 01:01:17;;;;;;;;;;;;;;;11.40;100.00;96715.63;5060197;28;19936;-61
2022/04/22 01:09:47;;;;;;;;;;;;;;;11.05;100.00;96725.06;5060093;28;19996;-62
2022/04/22 01:12:01;;;;;;;;;;;;;;;10.81;100.00;96711.06;5058450;28;19937;-63
2022/04/22 01:14:27;;;;;;;;;;;;;;;10.93;100.00;96699.91;5060016;28;19984;-62
2022/04/22 01:16:55;;;;;;;;;;;;;;;10.48;100.00;96699.63;5058775;28;19921;-62
2022/04/22 01:19:21;;;;;;;;;;;;;;;10.77;100.00;96691.38;5056596;28;19932;-63
2022/04/22 01:21:49;;;;;;;;;;;;;;;10.50;100.00;96697.44;5056392;28;19932;-63
2022/04/22 01:24:15;;;;;;;;;;;;;;;10.41;100.00;96701.06;5059680;28;19929;-62
2022/04/22 01:26:41;;;;;;;;;;;;;;;10.64;100.00;96682.28;5059635;28;19953;-62
2022/04/22 01:29:08;;;;;;;;;;;;;;;10.65;100.00;96694.53;5056775;28;19929;-63
2022/04/22 01:31:34;;;;;;;;;;;;;;;10.30;100.00;96687.09;5056248;28;19979;-62
2022/04/22 01:34:01;;;;;;;;;;;;;;;10.20;100.00;96681.91;5057932;28;19926;-62
2022/04/22 01:36:27;;;;;;;;;;;;;;;10.33;100.00;96681.19;5059706;28;19946;-62
2022/04/22 01:38:55;;;;;;;;;;;;;;;10.02;100.00;96686.16;5058190;28;19935;-62
2022/04/22 01:41:21;;;;;;;;;;;;;;;10.09;100.00;96681.22;5056074;28;19932;-62
2022/04/22 01:43:48;;;;;;;;;;;;;;;9.99;100.00;96675.25;5055648;28;20573;-61
2022/04/22 01:46:15;;;;;;;;;;;;;;;10.25;100.00;96669.28;5055929;28;19925;-62
2022/04/22 01:48:41;;;;;;;;;;;;;;;10.33;100.00;96661.72;5055955;28;19946;-61
2022/04/22 01:51:08;;;;;;;;;;;;;;;10.03;100.00;96662.91;5058618;28;19988;-61
2022/04/22 01:53:34;;;;;;;;;;;;;;;9.97;100.00;96648.06;5059510;28;19924;-62
2022/04/22 01:56:02;;;;;;;;;;;;;;;9.71;100.00;96661.78;5057436;28;19950;-61
2022/04/22 01:58:28;;;;;;;;;;;;;;;10.06;100.00;96654.34;5055780;28;19984;-62
2022/04/22 02:00:55;;;;;;;;;;;;;;;9.86;100.00;96647.44;5056707;28;19925;-62
2022/04/22 02:03:21;;;;;;;;;;;;;;;10.24;100.00;96640.25;5058914;28;19925;-62
2022/04/22 02:05:47;;;;;;;;;;;;;;;11.08;100.00;96635.56;5058736;28;20001;-62
2022/04/22 02:08:14;;;;;;;;;;;;;;;10.82;100.00;96636.03;5055463;28;19925;-62
2022/04/22 02:10:41;;;;;;;;;;;;;;;10.22;100.00;96653.06;5055782;28;19993;-62
2022/04/22 02:13:09;;;;;;;;;;;;;;;10.68;100.00;96634.41;5063683;28;19929;-61
2022/04/22 02:15:36;;;;;;;;;;;;;;;10.05;100.00;96636.75;5055488;28;19992;-62
2022/04/22 02:18:02;;;;;;;;;;;;;;;9.66;100.00;96640.50;5056306;28;19988;-63
2022/04/22 02:20:29;;;;;;;;;;;;;;;9.62;100.00;96633.38;5058772;28;19929;-62
2022/04/22 02:22:55;;;;;;;;;;;;;;;9.43;100.00;96630.72;5057732;28;20000;-63
2022/04/22 02:25:21;;;;;;;;;;;;;;;9.52;100.00;96636.19;5055301;28;19980;-62
2022/04/22 02:30:33;;;;;;;;;;;;;;;9.58;100.00;96630.50;5058887;28;19931;-62
2022/04/22 02:32:59;;;;;;;;;;;;;;;9.46;100.00;96624.81;5056448;28;19936;-62
2022/04/22 02:35:26;;;;;;;;;;;;;;;9.70;100.00;96622.88;5055311;28;19989;-63
2022/04/22 02:37:53;;;;;;;;;;;;;;;9.94;100.00;96614.78;5056009;28;19925;-62
2022/04/22 02:45:45;;;;;;;;;;;;;;;9.71;100.00;96613.81;5058460;28;19921;-63
2022/04/22 02:48:11;;;;;;;;;;;;;;;9.85;100.00;96616.50;5046898;28;19965;-62
2022/04/22 02:50:38;;;;;;;;;;;;;;;10.22;100.00;96611.16;5055377;28;19925;-62
2022/04/22 02:53:04;;;;;;;;;;;;;;;10.03;100.00;96609.56;5057485;28;19980;-63
2022/04/22 02:55:30;;;;;;;;;;;;;;;9.90;100.00;96603.13;5058374;28;19988;-62
2022/04/22 02:57:57;;;;;;;;;;;;;;;9.73;100.00;96598.31;5056865;28;19936;-62
2022/04/22 03:00:24;;;;;;;;;;;;;;;9.54;100.00;96600.16;5055123;28;19953;-62
2022/04/22 03:02:51;;;;;;;;;;;;;;;9.50;100.00;96599.16;5055033;28;19985;-62
2022/04/22 03:05:18;;;;;;;;;;;;;;;9.44;100.00;96594.97;5058436;28;19988;-62
2022/04/22 03:07:44;;;;;;;;;;;;;;;9.41;100.00;96579.56;5058191;28;19963;-62
2022/04/22 03:10:10;;;;;;;;;;;;;;;9.43;100.00;96590.75;5054928;28;20021;-62
2022/04/22 03:12:37;;;;;;;;;;;;;;;9.76;100.00;96579.06;5061718;28;19929;-62
2022/04/22 03:15:04;;;;;;;;;;;;;;;10.12;100.00;96568.63;5055723;28;19932;-62
2022/04/22 03:17:30;;;;;;;;;;;;;;;9.48;100.00;96580.00;5054813;28;19932;-61
2022/04/22 03:19:58;;;;;;;;;;;;;;;9.62;100.00;96572.84;5055812;28;19940;-61
2022/04/22 03:22:26;;;;;;;;;;;;;;;9.62;100.00;96572.84;5058296;28;19925;-62
2022/04/22 03:24:52;;;;;;;;;;;;;;;9.74;100.00;96575.09;5057226;28;19946;-62
2022/04/22 03:27:19;;;;;;;;;;;;;;;9.71;100.00;96583.69;5054571;28;19984;-62
2022/04/22 03:29:45;;;;;;;;;;;;;;;9.72;100.00;96575.38;5054703;28;19925;-62
2022/04/22 03:32:11;;;;;;;;;;;;;;;9.72;100.00;96569.25;5058077;28;20009;-61
2022/04/22 03:34:38;;;;;;;;;;;;;;;9.41;100.00;96568.91;5058314;28;19952;-62
2022/04/22 03:37:06;;;;;;;;;;;;;;;9.70;100.00;96566.88;5055610;28;19927;-62
2022/04/22 03:39:32;;;;;;;;;;;;;;;9.33;100.00;96572.22;5054646;28;19981;-62
2022/04/22 03:41:59;;;;;;;;;;;;;;;9.67;100.00;96562.13;5054292;28;19936;-62
2022/04/22 03:44:25;;;;;;;;;;;;;;;9.75;100.00;96564.13;5054784;28;20005;-62
2022/04/22 03:46:52;;;;;;;;;;;;;;;9.48;100.00;96566.69;5058332;28;19932;-62
2022/04/22 03:49:18;;;;;;;;;;;;;;;9.61;100.00;96565.97;5061173;28;20019;-62
2022/04/22 03:51:44;;;;;;;;;;;;;;;9.88;100.00;96570.59;5061087;28;19925;-62
2022/04/22 03:54:12;;;;;;;;;;;;;;;9.73;100.00;96568.97;5057878;28;19992;-62
2022/04/22 03:59:37;;;;;;;;;;;;;;;9.69;100.00;96557.31;5030736;28;20657;-63
2022/04/22 04:02:03;;;;;;;;;;;;;;;9.14;100.00;96555.41;5037120;28;19936;-62
2022/04/22 04:04:30;;;;;;;;;;;;;;;9.02;100.00;96560.38;5048090;28;19992;-63
2022/04/22 04:06:57;;;;;;;;;;;;;;;8.84;100.00;96561.13;5059336;28;19988;-62
2022/04/22 04:17:39;;;;;;;;;;;;;;;9.06;100.00;96559.53;5057314;28;19967;-62
2022/04/22 04:25:35;;;;;;;;;;;;;;;9.26;100.00;96553.13;5057232;28;19982;-62
2022/04/22 04:28:02;;;;;;;;;;;;;;;9.16;100.00;96547.94;5058880;28;19929;-62
2022/04/22 04:30:29;;;;;;;;;;;;;;;8.92;100.00;96547.19;5060722;28;19956;-63
2022/04/22 04:32:55;;;;;;;;;;;;;;;9.26;100.00;96545.13;5059296;28;19988;-62
2022/04/22 04:35:21;;;;;;;;;;;;;;;8.83;100.00;96554.22;5057080;28;19993;-63
2022/04/22 04:37:48;;;;;;;;;;;;;;;8.56;100.00;96547.59;5057002;28;19925;-62
2022/04/22 04:40:14;;;;;;;;;;;;;;;8.49;100.00;96541.81;5060407;28;19925;-61
2022/04/22 04:42:42;;;;;;;;;;;;;;;8.68;100.00;96553.31;5052996;28;19936;-62
2022/04/22 04:45:08;;;;;;;;;;;;;;;8.65;100.00;96545.09;5059864;28;20186;-62
2022/04/22 04:47:39;;;;;;;;;;;;;;;8.55;100.00;96542.56;5060503;28;19924;-62
2022/04/22 04:50:06;;;;;;;;;;;;;;;8.48;100.00;96544.78;5057719;28;19925;-62
2022/04/22 04:52:33;;;;;;;;;;;;;;;8.34;100.00;96544.66;5056699;28;19926;-62
2022/04/22 04:54:59;;;;;;;;;;;;;;;8.47;100.00;96541.31;5058456;28;20003;-62
2022/04/22 04:57:26;;;;;;;;;;;;;;;8.87;100.00;96553.38;5060137;28;19925;-63
2022/04/22 04:59:53;;;;;;;;;;;;;;;9.18;100.00;96548.47;5059452;28;19925;-62
2022/04/22 05:02:20;;;;;;;;;;;;;;;9.28;100.00;96543.00;5056505;28;19925;-62
2022/04/22 05:04:46;;;;;;;;;;;;;;;9.20;100.00;96536.44;5056759;28;19931;-62
2022/04/22 05:07:12;;;;;;;;;;;;;;;9.19;100.00;96540.16;5048494;28;19929;-62
2022/04/22 05:09:39;;;;;;;;;;;;;;;8.95;100.00;96544.75;5056617;28;19953;-62
2022/04/22 05:12:05;;;;;;;;;;;;;;;8.95;100.00;96543.94;5058875;28;19980;-62
2022/04/22 05:14:32;;;;;;;;;;;;;;;9.08;100.00;96538.72;5060128;28;19925;-62
2022/04/22 05:16:59;;;;;;;;;;;;;;;8.95;100.00;96549.28;5058427;28;19925;-62
2022/04/22 05:19:26;;;;;;;;;;;;;;;9.21;100.00;96542.56;5055289;28;19925;-62
2022/04/22 05:21:52;;;;;;;;;;;;;;;8.97;100.00;96544.47;5056987;28;19925;-62
2022/04/22 05:24:18;;;;;;;;;;;;;;;9.00;100.00;96551.88;5059824;28;19925;-61
2022/04/22 05:26:44;;;;;;;;;;;;;;;8.88;100.00;96546.19;5059667;28;19925;-63
2022/04/22 05:32:36;;;;;;;;;;;;;;;8.81;100.00;96537.75;5056321;28;19971;-62
2022/04/22 05:34:42;;;;;;;;;;;;;;;8.87;100.00;96544.59;5059669;28;19925;-62
2022/04/22 05:37:09;;;;;;;;;;;;;;;9.13;100.00;96541.31;5056390;28;19939;-62
2022/04/22 05:39:35;;;;;;;;;;;;;;;9.11;100.00;96537.34;5056144;28;20016;-62
2022/04/22 05:42:01;;;;;;;;;;;;;;;9.31;100.00;96539.75;5057698;28;20024;-63
2022/04/22 05:44:28;;;;;;;;;;;;;;;9.15;100.00;96541.03;5059298;28;19925;-62
2022/04/22 05:46:54;;;;;;;;;;;;;;;9.53;100.00;96539.94;5058120;28;19997;-61
2022/04/22 05:49:21;;;;;;;;;;;;;;;9.68;100.00;96539.75;5055973;28;19931;-62
2022/04/22 05:51:48;;;;;;;;;;;;;;;9.43;100.00;96534.78;5055806;28;19929;-63
2022/04/22 05:54:15;;;;;;;;;;;;;;;9.74;100.00;96538.59;5059577;28;19988;-62
2022/04/22 05:56:41;;;;;;;;;;;;;;;9.64;100.00;96536.06;5059400;27;19924;-62
2022/04/22 05:59:07;;;;;;;;;;;;;;;10.16;100.00;96531.50;5056369;28;19992;-63
2022/04/22 06:01:34;;;;;;;;;;;;;;;10.06;100.00;96540.44;5055377;28;20009;-62
2022/04/22 06:04:00;;;;;;;;;;;;;;;9.86;100.00;96543.47;5057535;28;20019;-62
2022/04/22 06:06:26;;;;;;;;;;;;;;;10.04;100.00;96533.81;5059354;28;19929;-63
2022/04/22 06:11:37;;;;;;;;;;;;;;;10.84;100.00;96531.56;5055474;28;19986;-62
2022/04/22 06:14:04;;;;;;;;;;;;;;;11.15;100.00;96537.06;5057737;28;19925;-61
2022/04/22 06:16:30;;;;;;;;;;;;;;;11.24;100.00;96529.94;5058782;28;19940;-62
2022/04/22 06:18:57;;;;;;;;;;;;;;;11.22;100.00;96538.25;5057584;28;20005;-62
2022/04/22 06:21:23;;;;;;;;;;;;;;;11.33;100.00;96541.50;5055438;28;19931;-62
2022/04/22 06:23:49;;;;;;;;;;;;;;;11.26;100.00;96543.78;5055637;28;19984;-62
2022/04/22 06:26:17;;;;;;;;;;;;;;;11.49;100.00;96531.25;5058717;28;20577;-62
2022/04/22 06:28:43;;;;;;;;;;;;;;;11.18;100.00;96541.81;5058660;28;19929;-62
2022/04/22 06:31:10;;;;;;;;;;;;;;;11.75;100.00;96551.81;5055659;28;19936;-63
2022/04/22 06:33:36;;;;;;;;;;;;;;;11.81;100.00;96544.44;5055137;28;20095;-62
2022/04/22 06:36:04;;;;;;;;;;;;;;;11.42;100.00;96534.34;5056124;28;19936;-62
2022/04/22 06:38:30;;;;;;;;;;;;;;;11.28;100.00;96536.25;5058610;28;19924;-62
2022/04/22 06:46:27;;;;;;;;;;;;;;;11.61;100.00;96540.31;5048884;28;19947;-62
2022/04/22 06:48:53;;;;;;;;;;;;;;;11.83;100.00;96535.03;5055812;28;19931;-62
2022/04/22 06:51:20;;;;;;;;;;;;;;;11.52;100.00;96538.66;5058738;28;19967;-62
2022/04/22 06:53:47;;;;;;;;;;;;;;;11.27;100.00;96534.66;5058762;28;19984;-62
2022/04/22 06:56:14;;;;;;;;;;;;;;;11.26;100.00;96538.47;5047080;28;19931;-62
2022/04/22 06:58:41;;;;;;;;;;;;;;;11.28;100.00;96536.25;5055181;28;19992;-62
2022/04/22 07:01:10;;;;;;;;;;;;;;;11.16;100.00;96536.78;5057882;28;19928;-62
2022/04/22 07:03:36;;;;;;;;;;;;;;;11.06;100.00;96531.66;5058341;28;19925;-61
2022/04/22 07:06:03;;;;;;;;;;;;;;;11.29;100.00;96521.81;5056174;28;19931;-62
2022/04/22 07:08:29;;;;;;;;;;;;;;;11.44;100.00;96518.81;5054684;28;19935;-63
2022/04/22 07:10:56;;;;;;;;;;;;;;;11.43;100.00;96527.13;5055556;28;20004;-62
2022/04/22 07:13:23;;;;;;;;;;;;;;;12.12;100.00;96517.75;5061314;28;19931;-62
2022/04/22 07:15:49;;;;;;;;;;;;;;;12.03;100.00;96516.91;5054104;28;19921;-62
2022/04/22 07:18:18;;;;;;;;;;;;;;;11.74;100.00;96515.44;5058241;28;19935;-62
2022/04/22 07:20:44;;;;;;;;;;;;;;;11.68;100.00;96516.63;5062060;28;19946;-62
2022/04/22 07:23:13;;;;;;;;;;;;;;;11.85;100.00;96511.44;5058593;28;19992;-62
2022/04/22 07:25:43;;;;;;;;;;;;;;;11.91;100.00;96517.47;5058507;28;19925;-61
2022/04/22 07:28:10;;;;;;;;;;;;;;;11.97;100.00;96505.53;5061053;28;19920;-62
2022/04/22 07:30:39;;;;;;;;;;;;;;;12.11;100.00;96505.44;5061894;28;19991;-62
2022/04/22 07:33:06;;;;;;;;;;;;;;;12.23;100.00;96513.69;5059158;28;19946;-62
2022/04/22 07:35:34;;;;;;;;;;;;;;;12.40;100.00;96508.44;5058151;28;19931;-62
2022/04/22 07:38:01;;;;;;;;;;;;;;;12.58;100.00;96501.28;5060134;28;19935;-62
2022/04/22 07:40:28;;;;;;;;;;;;;;;12.46;100.00;96496.50;5061805;28;19931;-63
2022/04/22 07:48:23;;;;;;;;;;;;;;;12.85;100.00;96490.31;5051285;28;19932;-62
2022/04/22 07:50:51;;;;;;;;;;;;;;;12.70;100.00;96488.88;5058318;28;19996;-62
2022/04/22 07:53:18;;;;;;;;;;;;;;;12.57;100.00;96489.75;5061381;28;19959;-62
2022/04/22 07:55:45;;;;;;;;;;;;;;;12.37;100.00;96483.09;5061384;28;20000;-62
2022/04/22 07:58:13;;;;;;;;;;;;;;;12.29;100.00;96480.34;5058065;28;19968;-63
2022/04/22 08:00:40;;;;;;;;;;;;;;;12.38;100.00;96468.59;5058147;28;20012;-62
2022/04/22 08:03:06;;;;;;;;;;;;;;;12.51;100.00;96474.16;5060303;28;19948;-62
2022/04/22 08:05:33;;;;;;;;;;;;;;;12.58;100.00;96480.63;5061436;28;19925;-62
2022/04/22 08:08:00;;;;;;;;;;;;;;;12.96;100.00;96476.34;5059620;28;19925;-62
2022/04/22 08:10:26;;;;;;;;;;;;;;;13.05;100.00;96464.84;5057889;28;19925;-61
2022/04/22 08:12:53;;;;;;;;;;;;;;;13.00;100.00;96474.59;5065562;28;20650;-62
2022/04/22 08:15:21;;;;;;;;;;;;;;;13.08;100.00;96482.97;5057685;28;20012;-62
2022/04/22 08:17:47;;;;;;;;;;;;;;;12.87;100.00;96464.78;5057666;28;20020;-63
2022/04/22 08:20:14;;;;;;;;;;;;;;;12.85;100.00;96471.56;5061418;28;19925;-61
2022/04/22 08:22:40;;;;;;;;;;;;;;;12.86;100.00;96465.13;5061367;28;19960;-62
2022/04/22 08:25:09;;;;;;;;;;;;;;;13.06;100.00;96471.78;5058527;28;19964;-62
2022/04/22 08:27:35;;;;;;;;;;;;;;;13.06;100.00;96469.88;5057826;28;19993;-63
2022/04/22 08:30:02;;;;;;;;;;;;;;;12.76;100.00;96468.09;5058962;28;19925;-61
2022/04/22 08:32:28;;;;;;;;;;;;;;;12.79;100.00;96468.25;5060794;28;19931;-62
2022/04/22 08:34:54;;;;;;;;;;;;;;;12.88;100.00;96466.38;5059963;28;19921;-62
2022/04/22 08:37:21;;;;;;;;;;;;;;;12.97;100.00;96448.44;5057603;28;19961;-62
2022/04/22 08:39:47;;;;;;;;;;;;;;;13.12;100.00;96454.47;5057229;28;19931;-62
2022/04/22 08:42:15;;;;;;;;;;;;;;;13.14;99.96;96453.06;5049191;28;19936;-62
2022/04/22 08:44:42;;;;;;;;;;;;;;;13.18;100.00;96450.53;5057375;28;19925;-62
2022/04/22 08:50:02;;;;;;;;;;;;;;;13.45;98.25;96453.69;5059942;28;19968;-61
2022/04/22 08:52:31;;;;;;;;;;;;;;;13.54;98.61;96451.00;5057528;28;19978;-62
2022/04/22 08:54:57;;;;;;;;;;;;;;;13.53;99.05;96454.78;5058335;28;19932;-62
2022/04/22 08:57:25;;;;;;;;;;;;;;;13.61;99.06;96448.63;5060702;28;19952;-62
2022/04/22 08:59:51;;;;;;;;;;;;;;;13.74;97.25;96453.03;5060106;28;19980;-62
2022/04/22 09:02:18;;;;;;;;;;;;;;;13.81;96.25;96439.91;5057044;28;19961;-63
2022/04/22 09:04:44;;;;;;;;;;;;;;;13.86;96.16;96438.97;5056839;28;19932;-62
2022/04/22 09:07:13;;;;;;;;;;;;;;;13.85;95.73;96434.69;5060232;28;19924;-61
2022/04/22 09:09:39;;;;;;;;;;;;;;;13.85;96.48;96438.19;5060484;28;19946;-64
2022/04/22 09:12:10;;;;;;;;;;;;;;;13.86;95.71;96425.56;5060011;28;19932;-62
2022/04/22 09:14:44;;;;;;;;;;;;;;;13.89;96.04;96431.06;5060483;28;19931;-62
2022/04/22 09:17:10;;;;;;;;;;;;;;;13.86;94.28;96426.34;5057227;28;19925;-63
2022/04/22 09:19:37;;;;;;;;;;;;;;;14.07;95.18;96435.28;5057072;28;20025;-62
2022/04/22 09:22:03;;;;;;;;;;;;;;;14.53;91.67;96433.69;5058896;28;19925;-62
2022/04/22 09:24:30;;;;;;;;;;;;;;;14.98;88.92;96431.22;5060129;28;20012;-62
2022/04/22 09:27:06;;;;;;;;;;;;;;;15.25;83.54;96427.25;5059022;28;19925;-62
2022/04/22 09:29:42;;;;;;;;;;;;;;;15.22;84.33;96428.69;5056641;28;19933;-62
2022/04/22 09:32:10;;;;;;;;;;;;;;;15.39;83.49;96435.81;5059775;28;20235;-62
2022/04/22 09:34:39;;;;;;;;;;;;;;;15.35;84.48;96418.78;5060223;28;19992;-63
2022/04/22 09:42:47;;;;;;;;;;;;;;;14.92;86.80;96419.09;5050477;28;19925;-63
2022/04/22 09:45:15;;;;;;;;;;;;;;;15.09;87.04;96414.41;5048569;28;19929;-62
2022/04/22 09:47:42;;;;;;;;;;;;;;;14.90;86.94;96416.72;5056547;28;19946;-63
2022/04/22 09:50:11;;;;;;;;;;;;;;;14.71;87.45;96411.00;5059382;28;19997;-63
2022/04/22 09:52:43;;;;;;;;;;;;;;;14.82;88.24;96414.91;5059747;28;19932;-63
2022/04/22 09:55:10;;;;;;;;;;;;;;;14.95;87.04;96410.38;5056386;28;19932;-62
2022/04/22 09:57:53;;;;;;;;;;;;;;;15.46;83.55;96415.34;5055942;28;20004;-63
2022/04/22 10:00:21;;;;;;;;;;;;;;;15.99;79.06;96409.16;5048858;28;19964;-62
2022/04/22 10:02:49;;;;;;;;;;;;;;;15.67;77.94;96412.66;5055908;28;19926;-63
2022/04/22 10:05:17;;;;;;;;;;;;;;;15.74;79.80;96407.53;5048129;28;19937;-63
2022/04/22 10:07:43;;;;;;;;;;;;;;;15.91;75.89;96406.53;5055888;28;19936;-63
2022/04/22 10:10:11;;;;;;;;;;;;;;;15.99;75.62;96403.78;5058846;28;19956;-62
2022/04/22 10:12:39;;;;;;;;;;;;;;;15.75;76.50;96397.56;5059502;28;20011;-64
2022/04/22 10:15:08;;;;;;;;;;;;;;;15.83;78.23;96405.53;5056618;28;19992;-63
2022/04/22 10:17:37;;;;;;;;;;;;;;;15.81;75.88;96391.63;5056135;28;19929;-64
2022/04/22 10:20:04;;;;;;;;;;;;;;;16.27;75.87;96395.84;5057915;28;19998;-62
2022/04/22 10:22:33;;;;;;;;;;;;;;;16.16;74.27;96387.41;5059040;28;19929;-62
2022/04/22 10:25:02;;;;;;;;;;;;;;;15.93;76.33;96388.97;5057271;28;20007;-63
2022/04/22 10:27:31;;;;;;;;;;;;;;;15.94;76.29;96390.50;5055570;28;19925;-63
2022/04/22 10:30:35;;;;;;;;;;;;;;;15.78;76.04;96391.50;5056687;28;19925;-63
2022/04/22 10:33:17;;;;;;;;;;;;;;;15.91;77.42;96385.78;5056844;28;20431;-63
2022/04/22 10:35:44;;;;;;;;;;;;;;;16.24;74.21;96404.59;5055390;28;19931;-64
2022/04/22 10:38:26;;;;;;;;;;;;;;;15.76;75.60;96391.03;5058646;28;20045;-63
2022/04/22 10:40:52;;;;;;;;;;;;;;;15.76;76.19;96385.66;5058185;28;19931;-62
2022/04/22 10:43:18;;;;;;;;;;;;;;;15.80;74.69;96389.25;5051261;28;20048;-63
2022/04/22 10:48:32;;;;;;;;;;;;;;;16.33;73.65;96396.41;5049682;28;19936;-61
2022/04/22 10:50:59;;;;;;;;;;;;;;;16.44;71.80;96382.16;5056833;28;20004;-62
2022/04/22 10:53:27;;;;;;;;;;;;;;;16.49;70.81;96381.94;5058101;28;19932;-62
2022/04/22 10:55:53;;;;;;;;;;;;;;;16.32;71.05;96379.44;5057716;28;19973;-62
2022/04/22 10:58:24;;;;;;;;;;;;;;;16.30;71.36;96380.91;5055214;28;19932;-63
2022/04/22 11:00:51;;;;;;;;;;;;;;;15.99;71.31;96389.53;5055526;28;19933;-62
2022/04/22 11:03:19;;;;;;;;;;;;;;;16.09;70.65;96383.72;5058367;28;19931;-63
2022/04/22 11:05:48;;;;;;;;;;;;;;;16.30;72.48;96389.00;5040424;28;22187;-63
2022/04/22 11:08:19;;;;;;;;;;;;;;;16.25;72.01;96375.75;5047012;28;19926;-62
2022/04/22 11:11:13;;;;;;;;;;;;;;;16.14;73.04;96389.66;5054815;28;19925;-63
2022/04/22 11:13:41;;;;;;;;;;;;;;;16.18;74.29;96377.06;5072260;28;20004;-62
2022/04/22 11:16:07;;;;;;;;;;;;;;;16.01;74.15;96376.50;5055896;28;19924;-63
2022/04/22 11:18:34;;;;;;;;;;;;;;;16.12;75.82;96375.72;5055076;28;19936;-62
2022/04/22 11:21:03;;;;;;;;;;;;;;;16.26;74.83;96390.78;5056717;28;19961;-63
2022/04/22 11:23:37;;;;;;;;;;;;;;;16.61;72.84;96398.13;5058483;28;20011;-62
2022/04/22 11:26:04;;;;;;;;;;;;;;;16.52;72.10;96391.25;5056223;28;19977;-63
2022/04/22 11:28:34;;;;;;;;;;;;;;;16.40;73.34;96388.56;5054713;28;19935;-63
2022/04/22 11:31:03;;;;;;;;;;;;;;;16.47;73.29;96388.75;5056285;28;19933;-62
2022/04/22 11:33:34;;;;;;;;;;;;;;;16.50;72.71;96390.78;5058377;28;19928;-62
2022/04/22 11:36:05;;;;;;;;;;;;;;;16.53;73.02;96382.81;5056486;28;19933;-63
2022/04/22 11:38:32;;;;;;;;;;;;;;;16.43;73.06;96385.19;5055197;28;19925;-63
2022/04/22 11:40:58;;;;;;;;;;;;;;;16.35;73.70;96394.16;5056177;28;19925;-63
2022/04/22 11:43:28;;;;;;;;;;;;;;;16.63;72.72;96381.59;5061285;28;19994;-63
2022/04/22 11:45:54;;;;;;;;;;;;;;;16.73;72.55;96386.53;5055587;28;19926;-63
2022/04/22 11:48:21;;;;;;;;;;;;;;;16.93;72.10;96388.28;5058493;28;20003;-63
2022/04/22 11:50:48;;;;;;;;;;;;;;;17.05;71.08;96382.88;5058197;28;19976;-63
2022/04/22 11:53:16;;;;;;;;;;;;;;;16.91;71.15;96385.16;5046856;28;19984;-63
2022/04/22 11:55:43;;;;;;;;;;;;;;;16.93;71.98;96380.19;5054970;28;19925;-63
2022/04/22 11:58:10;;;;;;;;;;;;;;;17.08;72.61;96386.81;5057818;28;19924;-62
2022/04/22 12:06:06;;;;;;;;;;;;;;;17.03;72.43;96378.94;5058077;28;19966;-63
2022/04/22 12:08:34;;;;;;;;;;;;;;;16.96;72.62;96379.53;5060404;28;19927;-63
2022/04/22 12:11:00;;;;;;;;;;;;;;;17.11;72.78;96388.84;5059343;27;19996;-63
2022/04/22 12:13:27;;;;;;;;;;;;;;;17.03;72.96;96390.53;5057752;28;19925;-63
2022/04/22 12:15:54;;;;;;;;;;;;;;;17.05;72.14;96399.03;5058494;28;19985;-62
2022/04/22 12:18:27;;;;;;;;;;;;;;;17.04;72.96;96394.00;5061434;28;19935;-63
2022/04/22 12:20:54;;;;;;;;;;;;;;;17.02;72.17;96388.94;5060515;28;19925;-63
2022/04/22 12:23:21;;;;;;;;;;;;;;;16.98;73.39;96379.19;5057901;28;19976;-63
2022/04/22 12:25:55;;;;;;;;;;;;;;;16.87;74.60;96383.47;5057688;28;19928;-63
2022/04/22 12:28:21;;;;;;;;;;;;;;;17.09;73.12;96375.66;5050857;28;20385;-63
2022/04/22 12:30:48;;;;;;;;;;;;;;;17.21;71.66;96372.16;5057458;28;19925;-63
2022/04/22 12:33:17;;;;;;;;;;;;;;;17.31;71.67;96378.97;5049607;28;19931;-64
2022/04/22 12:35:45;;;;;;;;;;;;;;;17.14;72.48;96380.81;5057589;28;19943;-63
2022/04/22 12:38:12;;;;;;;;;;;;;;;17.35;72.07;96383.34;5060771;28;19932;-63
2022/04/22 12:40:47;;;;;;;;;;;;;;;17.31;72.91;96365.47;5061208;28;20672;-62
2022/04/22 12:43:27;;;;;;;;;;;;;;;17.37;73.42;96386.47;5049752;28;19947;-63
2022/04/22 12:54:13;;;;;;;;;;;;;;;17.17;73.42;96371.28;5060596;28;20450;-63
2022/04/22 12:56:39;;;;;;;;;;;;;;;17.10;74.71;96377.25;5060778;28;20714;-63
2022/04/22 12:59:07;;;;;;;;;;;;;;;17.12;74.50;96368.81;5056933;28;19992;-64
2022/04/22 13:01:36;;;;;;;;;;;;;;;17.24;74.23;96372.25;5055945;28;21498;-63
2022/04/22 13:04:03;;;;;;;;;;;;;;;17.16;75.39;96375.88;5058042;28;19925;-63
2022/04/22 13:06:36;;;;;;;;;;;;;;;17.31;73.64;96377.06;5059731;28;19924;-63
2022/04/22 13:09:02;;;;;;;;;;;;;;;17.15;74.42;96374.31;5057289;28;20282;-63
2022/04/22 13:11:29;;;;;;;;;;;;;;;17.21;74.09;96383.72;5056203;28;19956;-64
2022/04/22 13:13:55;;;;;;;;;;;;;;;17.38;73.90;96373.78;5056889;28;19951;-63
2022/04/22 13:16:23;;;;;;;;;;;;;;;17.41;73.72;96383.88;5059552;28;19995;-63
2022/04/22 13:18:49;;;;;;;;;;;;;;;17.34;75.09;96386.38;5059181;28;19931;-63
2022/04/22 13:21:16;;;;;;;;;;;;;;;17.15;73.60;96377.00;5055734;28;19925;-63
2022/04/22 13:23:42;;;;;;;;;;;;;;;17.05;75.90;96380.16;5055727;28;19936;-63
2022/04/22 13:26:08;;;;;;;;;;;;;;;17.00;74.70;96385.81;5058439;28;20036;-63
2022/04/22 13:28:35;;;;;;;;;;;;;;;17.06;75.66;96375.56;5059191;28;19959;-63
2022/04/22 13:31:01;;;;;;;;;;;;;;;16.99;75.77;96381.53;5056996;27;19929;-63
2022/04/22 13:33:31;;;;;;;;;;;;;;;16.82;75.91;96379.13;5055667;28;19935;-63
2022/04/22 13:36:00;;;;;;;;;;;;;;;16.97;76.29;96381.09;5056837;28;19929;-64
2022/04/22 13:38:26;;;;;;;;;;;;;;;16.97;76.52;96383.00;5059167;28;19956;-64
2022/04/22 13:40:52;;;;;;;;;;;;;;;16.91;76.86;96387.84;5058393;28;19935;-67
2022/04/22 13:43:19;;;;;;;;;;;;;;;16.98;76.95;96389.97;5051639;28;19992;-63
2022/04/22 13:54:03;;;;;;;;;;;;;;;16.87;76.51;96388.84;5058374;28;19925;-63
2022/04/22 13:56:31;;;;;;;;;;;;;;;16.87;76.61;96392.34;5059741;28;19993;-63
2022/04/22 13:58:57;;;;;;;;;;;;;;;16.88;76.81;96388.53;5058435;28;19920;-63
2022/04/22 14:01:23;;;;;;;;;;;;;;;16.92;76.19;96386.75;5055923;28;20138;-63
2022/04/22 14:03:51;;;;;;;;;;;;;;;16.91;77.48;96384.38;5056478;28;19925;-62